sensor_id;sensor_type;location;lat;lon;timestamp;P1;durP1;ratioP1;P2;durP2;ratioP2
10166;SDS011;62970;53.130;8.244;2024-03-02T14:55:13;5.47;;;4.47;;
10166;SDS011;62970;53.130;8.244;2024-03-02T16:29:40;3.40;;;3.10;;
10166;SDS011;62970;53.130;8.244;2024-03-02T16:32:12;4.10;;;3.73;;
10166;SDS011;62970;53.130;8.244;2024-03-02T16:34:41;4.40;;;4.00;;
10166;SDS011;62970;53.130;8.244;2024-03-02T16:37:10;4.40;;;4.00;;
10166;SDS011;62970;53.130;8.244;2024-03-02T16:39:40;4.73;;;4.33;;
10166;SDS011;62970;53.130;8.244;2024-03-02T16:42:09;5.13;;;4.63;;
10166;SDS011;62970;53.130;8.244;2024-03-02T16:44:42;4.93;;;4.43;;
10166;SDS011;62970;53.130;8.244;2024-03-02T16:47:13;5.03;;;4.53;;
10166;SDS011;62970;53.130;8.244;2024-03-02T16:49:43;5.03;;;4.57;;
10166;SDS011;62970;53.130;8.244;2024-03-02T16:52:13;5.60;;;5.10;;
10166;SDS011;62970;53.130;8.244;2024-03-02T16:54:42;5.30;;;4.80;;
10166;SDS011;62970;53.130;8.244;2024-03-02T16:57:12;4.87;;;4.43;;
10166;SDS011;62970;53.130;8.244;2024-03-02T16:59:45;5.00;;;4.50;;
10166;SDS011;62970;53.130;8.244;2024-03-02T17:02:18;4.23;;;3.83;;
10166;SDS011;62970;53.130;8.244;2024-03-02T17:04:50;5.10;;;4.67;;
10166;SDS011;62970;53.130;8.244;2024-03-02T17:07:20;5.33;;;4.43;;
10166;SDS011;62970;53.130;8.244;2024-03-02T17:09:54;5.43;;;4.93;;
10166;SDS011;62970;53.130;8.244;2024-03-02T17:12:24;6.40;;;5.20;;
10166;SDS011;62970;53.130;8.244;2024-03-02T17:14:56;6.20;;;5.17;;
10166;SDS011;62970;53.130;8.244;2024-03-02T17:17:26;6.07;;;5.10;;
10166;SDS011;62970;53.130;8.244;2024-03-02T17:19:56;5.70;;;4.87;;
10166;SDS011;62970;53.130;8.244;2024-03-02T17:22:29;6.07;;;5.47;;
10166;SDS011;62970;53.130;8.244;2024-03-02T17:24:59;5.43;;;4.93;;
10166;SDS011;62970;53.130;8.244;2024-03-02T17:27:29;4.97;;;4.47;;
10166;SDS011;62970;53.130;8.244;2024-03-02T17:30:01;5.47;;;4.97;;
10166;SDS011;62970;53.130;8.244;2024-03-02T17:32:31;4.67;;;4.27;;
10166;SDS011;62970;53.130;8.244;2024-03-02T17:35:00;4.30;;;3.90;;
10166;SDS011;62970;53.130;8.244;2024-03-02T17:37:29;4.60;;;4.20;;
10166;SDS011;62970;53.130;8.244;2024-03-02T17:40:01;4.30;;;3.90;;
10166;SDS011;62970;53.130;8.244;2024-03-02T17:42:32;4.20;;;3.80;;
10166;SDS011;62970;53.130;8.244;2024-03-02T17:45:04;4.50;;;4.00;;
10166;SDS011;62970;53.130;8.244;2024-03-02T17:47:37;4.07;;;3.77;;
10166;SDS011;62970;53.130;8.244;2024-03-02T17:50:07;4.27;;;3.70;;
10166;SDS011;62970;53.130;8.244;2024-03-02T17:52:36;4.20;;;3.60;;
10166;SDS011;62970;53.130;8.244;2024-03-02T17:55:06;4.17;;;3.77;;
10166;SDS011;62970;53.130;8.244;2024-03-02T17:57:35;4.60;;;4.20;;
10166;SDS011;62970;53.130;8.244;2024-03-02T18:00:07;4.63;;;4.23;;
10166;SDS011;62970;53.130;8.244;2024-03-02T18:02:40;4.93;;;4.17;;
10166;SDS011;62970;53.130;8.244;2024-03-02T18:05:09;4.27;;;3.87;;
10166;SDS011;62970;53.130;8.244;2024-03-02T18:07:39;4.80;;;4.00;;
10166;SDS011;62970;53.130;8.244;2024-03-02T18:10:08;5.00;;;4.53;;
10166;SDS011;62970;53.130;8.244;2024-03-02T18:12:39;5.17;;;4.50;;
10166;SDS011;62970;53.130;8.244;2024-03-02T18:15:12;4.77;;;4.37;;
10166;SDS011;62970;53.130;8.244;2024-03-02T18:17:41;5.47;;;4.77;;
10166;SDS011;62970;53.130;8.244;2024-03-02T18:20:11;5.70;;;5.13;;
10166;SDS011;62970;53.130;8.244;2024-03-02T18:22:41;5.47;;;4.90;;
10166;SDS011;62970;53.130;8.244;2024-03-02T18:25:10;5.30;;;4.80;;
10166;SDS011;62970;53.130;8.244;2024-03-02T18:27:39;5.80;;;4.90;;
10166;SDS011;62970;53.130;8.244;2024-03-02T18:30:12;6.40;;;5.70;;
10166;SDS011;62970;53.130;8.244;2024-03-02T18:32:42;7.03;;;5.83;;
10166;SDS011;62970;53.130;8.244;2024-03-02T18:35:11;7.47;;;5.97;;
10166;SDS011;62970;53.130;8.244;2024-03-02T18:37:43;7.23;;;6.17;;
10166;SDS011;62970;53.130;8.244;2024-03-02T18:40:12;6.40;;;5.60;;
10166;SDS011;62970;53.130;8.244;2024-03-02T18:42:42;6.90;;;5.80;;
10166;SDS011;62970;53.130;8.244;2024-03-02T18:45:14;7.10;;;5.67;;
10166;SDS011;62970;53.130;8.244;2024-03-02T18:47:43;5.77;;;5.17;;
10166;SDS011;62970;53.130;8.244;2024-03-02T18:50:13;6.13;;;5.53;;
10166;SDS011;62970;53.130;8.244;2024-03-02T18:52:42;7.10;;;5.60;;
10166;SDS011;62970;53.130;8.244;2024-03-02T18:55:14;6.50;;;5.70;;
10166;SDS011;62970;53.130;8.244;2024-03-02T18:57:43;6.40;;;5.77;;
10166;SDS011;62970;53.130;8.244;2024-03-02T19:00:16;6.87;;;5.53;;
10166;SDS011;62970;53.130;8.244;2024-03-02T19:02:48;6.60;;;5.83;;
10166;SDS011;62970;53.130;8.244;2024-03-02T19:05:17;6.33;;;5.37;;
10166;SDS011;62970;53.130;8.244;2024-03-02T19:07:47;6.00;;;5.40;;
10166;SDS011;62970;53.130;8.244;2024-03-02T19:10:17;6.00;;;5.40;;
10166;SDS011;62970;53.130;8.244;2024-03-02T19:12:47;6.67;;;5.77;;
10166;SDS011;62970;53.130;8.244;2024-03-02T19:15:19;7.10;;;6.00;;
10166;SDS011;62970;53.130;8.244;2024-03-02T19:17:59;7.27;;;6.43;;
10166;SDS011;62970;53.130;8.244;2024-03-02T19:20:28;9.20;;;7.23;;
10166;SDS011;62970;53.130;8.244;2024-03-02T19:22:57;7.70;;;6.90;;
10166;SDS011;62970;53.130;8.244;2024-03-02T19:25:31;8.93;;;6.50;;
10166;SDS011;62970;53.130;8.244;2024-03-02T19:28:03;6.90;;;6.20;;
10166;SDS011;62970;53.130;8.244;2024-03-02T19:30:36;9.03;;;6.40;;
10166;SDS011;62970;53.130;8.244;2024-03-02T19:33:05;6.87;;;6.17;;
10166;SDS011;62970;53.130;8.244;2024-03-02T19:35:39;6.43;;;5.70;;
10166;SDS011;62970;53.130;8.244;2024-03-02T19:38:11;7.00;;;5.67;;
10166;SDS011;62970;53.130;8.244;2024-03-02T19:40:41;6.67;;;5.93;;
10166;SDS011;62970;53.130;8.244;2024-03-02T19:43:11;7.10;;;6.30;;
10166;SDS011;62970;53.130;8.244;2024-03-02T19:45:45;6.70;;;5.93;;
10166;SDS011;62970;53.130;8.244;2024-03-02T19:48:16;7.50;;;5.57;;
10166;SDS011;62970;53.130;8.244;2024-03-02T19:50:49;6.33;;;5.73;;
10166;SDS011;62970;53.130;8.244;2024-03-02T19:53:18;6.93;;;6.23;;
10166;SDS011;62970;53.130;8.244;2024-03-02T19:55:47;7.40;;;6.50;;
10166;SDS011;62970;53.130;8.244;2024-03-02T19:58:17;7.00;;;6.30;;
10166;SDS011;62970;53.130;8.244;2024-03-02T20:00:49;7.90;;;6.57;;
10166;SDS011;62970;53.130;8.244;2024-03-02T20:03:22;7.63;;;6.83;;
10166;SDS011;62970;53.130;8.244;2024-03-02T20:05:52;6.37;;;5.63;;
10166;SDS011;62970;53.130;8.244;2024-03-02T20:08:21;6.87;;;6.17;;
10166;SDS011;62970;53.130;8.244;2024-03-02T20:10:51;6.47;;;5.87;;
10166;SDS011;62970;53.130;8.244;2024-03-02T20:13:20;6.57;;;5.97;;
10166;SDS011;62970;53.130;8.244;2024-03-02T20:15:53;6.77;;;5.37;;
10166;SDS011;62970;53.130;8.244;2024-03-02T20:18:25;6.87;;;5.70;;
10166;SDS011;62970;53.130;8.244;2024-03-02T20:20:54;6.93;;;5.73;;
10166;SDS011;62970;53.130;8.244;2024-03-02T20:23:25;7.67;;;5.80;;
10166;SDS011;62970;53.130;8.244;2024-03-02T20:25:57;6.77;;;6.07;;
10166;SDS011;62970;53.130;8.244;2024-03-02T20:28:26;6.50;;;5.70;;
10166;SDS011;62970;53.130;8.244;2024-03-02T20:30:59;6.70;;;5.43;;
10166;SDS011;62970;53.130;8.244;2024-03-02T20:33:28;7.20;;;6.10;;
10166;SDS011;62970;53.130;8.244;2024-03-02T20:35:57;6.13;;;5.53;;
10166;SDS011;62970;53.130;8.244;2024-03-02T20:38:28;7.77;;;5.80;;
10166;SDS011;62970;53.130;8.244;2024-03-02T20:40:57;6.83;;;6.10;;
10166;SDS011;62970;53.130;8.244;2024-03-02T20:43:26;6.93;;;6.20;;
10166;SDS011;62970;53.130;8.244;2024-03-02T20:45:58;6.60;;;5.90;;
10166;SDS011;62970;53.130;8.244;2024-03-02T20:48:31;6.73;;;5.87;;
10166;SDS011;62970;53.130;8.244;2024-03-02T20:51:00;7.97;;;6.37;;
10166;SDS011;62970;53.130;8.244;2024-03-02T20:53:29;7.00;;;6.30;;
10166;SDS011;62970;53.130;8.244;2024-03-02T20:55:58;7.03;;;6.33;;
10166;SDS011;62970;53.130;8.244;2024-03-02T20:58:28;8.13;;;5.97;;
10166;SDS011;62970;53.130;8.244;2024-03-02T21:00:59;8.10;;;6.67;;
10166;SDS011;62970;53.130;8.244;2024-03-02T21:03:29;9.43;;;7.13;;
10166;SDS011;62970;53.130;8.244;2024-03-02T21:06:02;9.33;;;7.33;;
10166;SDS011;62970;53.130;8.244;2024-03-02T21:08:32;9.53;;;7.37;;
10166;SDS011;62970;53.130;8.244;2024-03-02T21:11:01;9.53;;;7.00;;
10166;SDS011;62970;53.130;8.244;2024-03-02T21:13:31;7.73;;;6.40;;
10166;SDS011;62970;53.130;8.244;2024-03-02T21:16:03;7.00;;;6.03;;
10166;SDS011;62970;53.130;8.244;2024-03-02T21:18:34;7.63;;;6.40;;
10166;SDS011;62970;53.130;8.244;2024-03-02T21:21:04;6.57;;;5.73;;
10166;SDS011;62970;53.130;8.244;2024-03-02T21:23:35;6.20;;;5.60;;
10166;SDS011;62970;53.130;8.244;2024-03-02T21:26:04;7.80;;;6.37;;
10166;SDS011;62970;53.130;8.244;2024-03-02T21:28:33;6.70;;;5.30;;
10166;SDS011;62970;53.130;8.244;2024-03-02T21:31:06;6.47;;;5.77;;
10166;SDS011;62970;53.130;8.244;2024-03-02T21:33:35;6.30;;;5.50;;
10166;SDS011;62970;53.130;8.244;2024-03-02T21:36:04;6.47;;;5.67;;
10166;SDS011;62970;53.130;8.244;2024-03-02T21:38:34;7.37;;;6.30;;
10166;SDS011;62970;53.130;8.244;2024-03-02T21:41:04;7.17;;;5.73;;
10166;SDS011;62970;53.130;8.244;2024-03-02T21:43:33;7.03;;;6.23;;
10166;SDS011;62970;53.130;8.244;2024-03-02T21:46:07;6.43;;;5.83;;
10166;SDS011;62970;53.130;8.244;2024-03-02T21:48:39;7.73;;;6.77;;
10166;SDS011;62970;53.130;8.244;2024-03-02T21:51:13;7.20;;;6.50;;
10166;SDS011;62970;53.130;8.244;2024-03-02T21:53:43;7.10;;;6.40;;
10166;SDS011;62970;53.130;8.244;2024-03-02T21:56:13;8.67;;;7.20;;
10166;SDS011;62970;53.130;8.244;2024-03-02T21:58:43;7.40;;;6.70;;
10166;SDS011;62970;53.130;8.244;2024-03-02T22:01:15;8.23;;;6.70;;
10166;SDS011;62970;53.130;8.244;2024-03-02T22:03:44;8.87;;;7.27;;
10166;SDS011;62970;53.130;8.244;2024-03-02T22:06:14;8.57;;;7.37;;
10166;SDS011;62970;53.130;8.244;2024-03-02T22:08:43;9.50;;;7.03;;
10166;SDS011;62970;53.130;8.244;2024-03-02T22:11:12;8.37;;;7.17;;
10166;SDS011;62970;53.130;8.244;2024-03-02T22:13:41;11.60;;;8.30;;
10166;SDS011;62970;53.130;8.244;2024-03-02T22:16:16;16.63;;;10.20;;
10166;SDS011;62970;53.130;8.244;2024-03-02T22:18:48;19.80;;;10.67;;
10166;SDS011;62970;53.130;8.244;2024-03-02T22:21:17;23.70;;;11.87;;
10166;SDS011;62970;53.130;8.244;2024-03-02T22:23:47;23.60;;;13.10;;
10166;SDS011;62970;53.130;8.244;2024-03-02T22:26:16;23.93;;;12.50;;
10166;SDS011;62970;53.130;8.244;2024-03-02T22:28:45;24.80;;;14.03;;
10166;SDS011;62970;53.130;8.244;2024-03-02T22:31:17;19.60;;;11.90;;
10166;SDS011;62970;53.130;8.244;2024-03-02T22:33:48;16.23;;;9.97;;
10166;SDS011;62970;53.130;8.244;2024-03-02T22:36:17;16.63;;;10.47;;
10166;SDS011;62970;53.130;8.244;2024-03-02T22:38:46;10.87;;;8.53;;
10166;SDS011;62970;53.130;8.244;2024-03-02T22:41:16;9.97;;;8.10;;
10166;SDS011;62970;53.130;8.244;2024-03-02T22:43:45;9.30;;;7.93;;
10166;SDS011;62970;53.130;8.244;2024-03-02T22:46:17;9.27;;;7.23;;
10166;SDS011;62970;53.130;8.244;2024-03-02T22:48:46;7.63;;;6.83;;
10166;SDS011;62970;53.130;8.244;2024-03-02T22:51:19;8.43;;;6.80;;
10166;SDS011;62970;53.130;8.244;2024-03-02T22:53:52;7.57;;;6.33;;
10166;SDS011;62970;53.130;8.244;2024-03-02T22:56:21;7.73;;;6.60;;
10166;SDS011;62970;53.130;8.244;2024-03-02T22:58:50;7.03;;;6.33;;
10166;SDS011;62970;53.130;8.244;2024-03-02T23:01:22;7.23;;;6.40;;
10166;SDS011;62970;53.130;8.244;2024-03-02T23:03:52;7.63;;;6.83;;
10166;SDS011;62970;53.130;8.244;2024-03-02T23:06:21;7.00;;;6.30;;
10166;SDS011;62970;53.130;8.244;2024-03-02T23:08:50;7.77;;;6.73;;
10166;SDS011;62970;53.130;8.244;2024-03-02T23:11:19;8.10;;;6.77;;
10166;SDS011;62970;53.130;8.244;2024-03-02T23:13:48;9.47;;;7.47;;
10166;SDS011;62970;53.130;8.244;2024-03-02T23:16:17;7.63;;;6.40;;
10166;SDS011;62970;53.130;8.244;2024-03-02T23:18:49;7.80;;;7.00;;
10166;SDS011;62970;53.130;8.244;2024-03-02T23:21:18;9.27;;;7.33;;
10166;SDS011;62970;53.130;8.244;2024-03-02T23:23:47;8.00;;;7.13;;
10166;SDS011;62970;53.130;8.244;2024-03-02T23:26:17;8.83;;;7.30;;
10166;SDS011;62970;53.130;8.244;2024-03-02T23:28:47;9.97;;;7.90;;
10166;SDS011;62970;53.130;8.244;2024-03-02T23:31:17;8.63;;;7.20;;
10166;SDS011;62970;53.130;8.244;2024-03-02T23:33:49;10.27;;;7.77;;
10166;SDS011;62970;53.130;8.244;2024-03-02T23:36:19;9.63;;;7.90;;
10166;SDS011;62970;53.130;8.244;2024-03-02T23:38:48;9.47;;;8.33;;
10166;SDS011;62970;53.130;8.244;2024-03-02T23:41:19;9.30;;;7.90;;
10166;SDS011;62970;53.130;8.244;2024-03-02T23:43:48;10.67;;;9.07;;
10166;SDS011;62970;53.130;8.244;2024-03-02T23:46:17;11.07;;;8.47;;
10166;SDS011;62970;53.130;8.244;2024-03-02T23:48:49;11.83;;;9.43;;
10166;SDS011;62970;53.130;8.244;2024-03-02T23:51:18;12.93;;;9.53;;
10166;SDS011;62970;53.130;8.244;2024-03-02T23:53:47;12.43;;;10.80;;
10166;SDS011;62970;53.130;8.244;2024-03-02T23:56:19;12.20;;;9.97;;
10166;SDS011;62970;53.130;8.244;2024-03-02T23:58:48;11.10;;;9.77;;
